createdAt,value
2019-03-26T00:01:48.586Z,4.30
2019-03-26T00:04:18.494Z,3.73
2019-03-26T00:06:48.364Z,3.10
2019-03-26T00:09:18.668Z,3.20
2019-03-26T00:11:49.728Z,2.77
2019-03-26T00:14:19.704Z,2.70
2019-03-26T00:16:51.209Z,2.87
2019-03-26T00:19:21.262Z,3.00
2019-03-26T00:21:51.143Z,2.90
2019-03-26T00:24:21.273Z,3.53
2019-03-26T00:26:52.328Z,2.60
2019-03-26T00:29:25.058Z,2.87
2019-03-26T00:31:55.482Z,2.80
2019-03-26T00:34:26.794Z,2.83
2019-03-26T00:36:56.695Z,2.90
2019-03-26T00:39:26.448Z,2.97
2019-03-26T00:41:56.178Z,2.60
2019-03-26T00:44:26.217Z,1.90
2019-03-26T00:46:55.984Z,2.30
2019-03-26T00:49:25.787Z,2.90
2019-03-26T00:51:55.471Z,2.30
2019-03-26T00:54:25.211Z,2.33
2019-03-26T00:56:55.402Z,2.40
2019-03-26T00:59:25.250Z,2.43
2019-03-26T01:01:55.338Z,2.43
2019-03-26T01:04:32.788Z,2.20
2019-03-26T01:06:58.527Z,2.43
2019-03-26T01:09:28.323Z,2.40
2019-03-26T01:11:58.421Z,2.23
2019-03-26T01:14:28.180Z,2.10
2019-03-26T01:16:58.570Z,2.00
2019-03-26T01:19:28.330Z,1.90
2019-03-26T01:21:58.105Z,2.03
2019-03-26T01:24:27.800Z,1.83
2019-03-26T01:26:57.600Z,2.00
2019-03-26T01:29:27.680Z,1.60
2019-03-26T01:31:57.345Z,2.13
2019-03-26T01:34:27.431Z,1.20
2019-03-26T01:36:57.222Z,1.23
2019-03-26T01:39:27.009Z,1.80
2019-03-26T01:41:56.798Z,1.60
2019-03-26T01:44:26.511Z,1.90
2019-03-26T01:46:56.366Z,1.63
2019-03-26T01:49:26.407Z,1.77
2019-03-26T01:51:56.258Z,2.00
2019-03-26T01:54:26.500Z,1.80
2019-03-26T01:56:56.377Z,1.83
2019-03-26T01:59:27.305Z,1.80
2019-03-26T02:01:57.153Z,2.43
2019-03-26T02:04:27.447Z,1.57
2019-03-26T02:06:57.257Z,1.80
2019-03-26T02:09:26.978Z,1.93
2019-03-26T02:11:57.472Z,1.97
2019-03-26T02:14:27.392Z,1.93
2019-03-26T02:16:57.223Z,2.00
2019-03-26T02:19:27.940Z,1.67
2019-03-26T02:21:58.085Z,2.03
2019-03-26T02:24:28.281Z,1.80
2019-03-26T02:26:58.947Z,2.33
2019-03-26T02:29:30.088Z,2.30
2019-03-26T02:32:00.033Z,2.10
2019-03-26T02:34:30.633Z,1.90
2019-03-26T02:37:00.509Z,2.33
2019-03-26T02:39:31.264Z,2.13
2019-03-26T02:42:01.066Z,2.70
2019-03-26T02:44:32.254Z,2.37
2019-03-26T02:47:02.879Z,2.47
2019-03-26T02:49:33.093Z,2.50
2019-03-26T02:52:04.085Z,1.70
2019-03-26T02:54:34.261Z,2.70
2019-03-26T02:57:04.242Z,2.60
2019-03-26T02:59:34.274Z,2.20
2019-03-26T03:02:04.169Z,2.50
2019-03-26T03:04:34.631Z,2.20
2019-03-26T03:07:04.854Z,3.10
2019-03-26T03:09:35.058Z,3.17
2019-03-26T03:12:04.956Z,3.30
2019-03-26T03:14:35.107Z,3.30
2019-03-26T03:17:05.106Z,2.90
2019-03-26T03:19:34.988Z,2.53
2019-03-26T03:22:04.885Z,3.63
2019-03-26T03:24:35.059Z,3.33
2019-03-26T03:27:04.958Z,3.60
2019-03-26T03:29:35.308Z,2.97
2019-03-26T03:32:05.589Z,3.37
2019-03-26T03:34:35.661Z,3.17
2019-03-26T03:37:05.696Z,3.43
2019-03-26T03:39:36.336Z,3.00
2019-03-26T03:42:06.496Z,4.00
2019-03-26T03:44:36.568Z,3.70
2019-03-26T03:47:06.776Z,3.30
2019-03-26T03:49:36.917Z,3.50
2019-03-26T03:52:07.634Z,4.47
2019-03-26T03:54:39.084Z,3.83
2019-03-26T03:57:09.935Z,3.40
2019-03-26T03:59:40.708Z,3.50
2019-03-26T04:02:10.759Z,3.67
2019-03-26T04:04:40.907Z,3.70
2019-03-26T04:07:11.024Z,3.60
2019-03-26T04:09:41.459Z,3.70
2019-03-26T04:12:11.464Z,3.70
2019-03-26T04:14:42.013Z,3.40
2019-03-26T04:17:12.089Z,3.50
2019-03-26T04:19:42.119Z,4.00
2019-03-26T04:22:12.139Z,3.03
2019-03-26T04:24:42.065Z,4.30
2019-03-26T04:27:12.108Z,3.90
2019-03-26T04:29:43.368Z,3.97
2019-03-26T04:32:13.487Z,3.80
2019-03-26T04:34:43.641Z,3.87
2019-03-26T04:37:13.680Z,3.70
2019-03-26T04:39:45.136Z,4.90
2019-03-26T04:42:15.132Z,4.67
2019-03-26T04:44:45.311Z,5.93
2019-03-26T04:47:15.298Z,3.90
2019-03-26T04:49:45.390Z,3.50
2019-03-26T04:52:15.441Z,4.40
2019-03-26T04:54:45.981Z,4.87
2019-03-26T04:57:15.962Z,4.00
2019-03-26T04:59:45.999Z,6.77
2019-03-26T05:02:16.025Z,6.27
2019-03-26T05:04:46.016Z,3.67
2019-03-26T05:07:16.012Z,4.00
2019-03-26T05:09:46.155Z,3.47
2019-03-26T05:12:16.798Z,3.00
2019-03-26T05:14:47.711Z,3.50
2019-03-26T05:17:18.866Z,3.63
2019-03-26T05:19:49.718Z,3.73
2019-03-26T05:22:24.467Z,3.57
2019-03-26T05:24:51.679Z,4.17
2019-03-26T05:27:21.900Z,4.20
2019-03-26T05:29:51.883Z,4.03
2019-03-26T05:32:22.059Z,3.90
2019-03-26T05:34:53.037Z,4.33
2019-03-26T05:37:23.371Z,4.00
2019-03-26T05:39:53.933Z,4.30
2019-03-26T05:42:23.950Z,4.03
2019-03-26T05:44:54.074Z,3.97
2019-03-26T05:47:24.199Z,4.43
2019-03-26T05:49:54.278Z,4.40
2019-03-26T05:52:24.340Z,4.30
2019-03-26T05:54:54.765Z,4.27
2019-03-26T05:57:27.237Z,5.10
2019-03-26T05:59:58.009Z,4.80
2019-03-26T06:02:28.610Z,3.87
2019-03-26T06:04:58.717Z,4.80
2019-03-26T06:07:31.174Z,6.17
2019-03-26T06:10:03.563Z,4.50
2019-03-26T06:12:38.834Z,5.77
2019-03-26T06:15:10.037Z,4.50
2019-03-26T06:17:41.085Z,6.17
2019-03-26T06:20:11.958Z,5.00
2019-03-26T06:22:42.622Z,5.70
2019-03-26T06:25:16.019Z,5.37
2019-03-26T06:27:46.392Z,5.13
2019-03-26T06:30:16.610Z,5.60
2019-03-26T06:32:47.084Z,5.20
2019-03-26T06:35:36.024Z,5.67
2019-03-26T06:38:06.179Z,5.63
2019-03-26T06:40:36.545Z,5.67
2019-03-26T06:43:06.719Z,6.13
2019-03-26T06:45:36.832Z,4.93
2019-03-26T06:48:08.827Z,5.60
2019-03-26T06:50:44.138Z,6.27
2019-03-26T06:53:16.192Z,6.27
2019-03-26T06:55:46.419Z,5.70
2019-03-26T06:58:18.860Z,7.50
2019-03-26T07:00:50.844Z,7.70
2019-03-26T07:03:40.160Z,5.47
2019-03-26T07:06:11.731Z,5.57
2019-03-26T07:08:42.466Z,4.70
2019-03-26T07:11:13.252Z,5.73
2019-03-26T07:13:45.167Z,5.40
2019-03-26T07:16:15.302Z,5.07
2019-03-26T07:18:49.729Z,4.10
2019-03-26T07:21:21.488Z,5.33
2019-03-26T07:23:51.716Z,4.53
2019-03-26T07:26:32.539Z,5.13
2019-03-26T07:29:22.174Z,5.00
2019-03-26T07:31:52.408Z,4.90
2019-03-26T07:34:41.861Z,5.57
2019-03-26T07:37:16.890Z,4.83
2019-03-26T07:39:50.315Z,4.60
2019-03-26T07:42:20.881Z,3.83
2019-03-26T07:44:51.039Z,4.80
2019-03-26T07:47:22.334Z,4.67
2019-03-26T07:49:52.528Z,4.60
2019-03-26T07:52:25.077Z,3.90
2019-03-26T07:54:59.192Z,4.40
2019-03-26T07:57:29.397Z,4.90
2019-03-26T08:00:02.342Z,4.73
2019-03-26T08:02:37.754Z,4.70
2019-03-26T08:05:11.310Z,5.40
2019-03-26T08:07:43.293Z,5.10
2019-03-26T08:10:13.385Z,5.53
2019-03-26T08:12:43.421Z,4.97
2019-03-26T08:15:15.630Z,4.27
2019-03-26T08:17:46.014Z,4.37
2019-03-26T08:20:16.240Z,2.83
2019-03-26T08:22:47.566Z,3.67
2019-03-26T08:25:17.697Z,3.23
2019-03-26T08:27:47.959Z,3.57
2019-03-26T08:30:18.530Z,2.87
2019-03-26T08:32:49.177Z,3.13
2019-03-26T08:35:19.343Z,3.50
2019-03-26T08:37:49.518Z,3.40
2019-03-26T08:40:26.682Z,4.07
2019-03-26T08:42:57.960Z,3.70
2019-03-26T08:45:30.628Z,3.97
2019-03-26T08:48:01.169Z,4.20
2019-03-26T08:50:31.319Z,4.40
2019-03-26T08:53:33.587Z,4.30
2019-03-26T08:56:04.939Z,4.60
2019-03-26T08:58:36.402Z,3.90
2019-03-26T09:01:08.930Z,3.57
2019-03-26T09:03:40.284Z,3.53
2019-03-26T09:06:11.418Z,3.53
2019-03-26T09:08:42.563Z,3.60
2019-03-26T09:11:13.225Z,3.37
2019-03-26T09:13:46.505Z,4.40
2019-03-26T09:16:16.749Z,3.40
2019-03-26T09:18:47.012Z,3.67
2019-03-26T09:21:17.118Z,3.83
2019-03-26T09:23:47.343Z,3.67
2019-03-26T09:26:17.674Z,3.30
2019-03-26T09:28:48.165Z,3.00
2019-03-26T09:31:18.733Z,3.60
2019-03-26T09:33:48.966Z,3.70
2019-03-26T09:36:28.078Z,4.53
2019-03-26T09:38:58.521Z,3.43
2019-03-26T09:41:30.586Z,3.30
2019-03-26T09:44:00.787Z,3.57
2019-03-26T09:46:30.827Z,2.80
2019-03-26T09:49:01.540Z,3.63
2019-03-26T09:51:32.423Z,3.17
2019-03-26T09:54:02.564Z,3.27
2019-03-26T09:56:35.224Z,3.23
2019-03-26T09:59:07.848Z,3.50
2019-03-26T10:01:40.194Z,3.20
2019-03-26T10:04:10.452Z,2.80
2019-03-26T10:06:40.578Z,3.20
2019-03-26T10:09:11.822Z,3.43
2019-03-26T10:11:42.101Z,3.63
2019-03-26T10:14:12.456Z,2.97
2019-03-26T10:16:43.540Z,3.53
2019-03-26T10:19:16.831Z,3.53
2019-03-26T10:21:50.431Z,3.40
2019-03-26T10:24:23.148Z,3.63
2019-03-26T10:26:53.339Z,3.33
2019-03-26T10:29:30.016Z,3.40
2019-03-26T10:31:55.707Z,3.70
2019-03-26T10:34:26.933Z,4.70
2019-03-26T10:36:58.209Z,3.57
2019-03-26T10:39:28.369Z,3.10
2019-03-26T10:42:00.740Z,3.67
2019-03-26T10:44:31.740Z,3.17
2019-03-26T10:47:05.931Z,3.50
2019-03-26T10:49:36.078Z,3.20
2019-03-26T10:52:08.680Z,2.87
2019-03-26T10:54:40.206Z,3.27
2019-03-26T10:57:10.585Z,3.17
2019-03-26T10:59:40.737Z,3.17
2019-03-26T11:02:11.078Z,3.23
2019-03-26T11:04:48.012Z,3.40
2019-03-26T11:07:22.573Z,2.80
2019-03-26T11:09:56.084Z,2.60
2019-03-26T11:12:28.899Z,2.40
2019-03-26T11:15:03.278Z,2.40
2019-03-26T11:17:37.515Z,2.90
2019-03-26T11:20:10.526Z,2.83
2019-03-26T11:22:40.761Z,2.73
2019-03-26T11:25:12.322Z,2.57
2019-03-26T11:27:43.038Z,3.23
2019-03-26T11:30:13.675Z,2.90
2019-03-26T11:32:44.036Z,2.97
2019-03-26T11:35:15.123Z,3.03
2019-03-26T11:37:45.464Z,3.40
2019-03-26T11:40:17.621Z,3.60
2019-03-26T11:42:48.271Z,3.17
2019-03-26T11:45:20.598Z,3.20
2019-03-26T11:47:55.772Z,3.30
2019-03-26T11:50:37.309Z,4.10
2019-03-26T11:53:08.341Z,4.10
2019-03-26T11:55:41.035Z,5.17
2019-03-26T11:58:13.769Z,3.57
2019-03-26T12:00:44.199Z,3.40
2019-03-26T12:03:14.373Z,3.80
2019-03-26T12:05:47.862Z,3.83
2019-03-26T12:08:18.253Z,3.50
2019-03-26T12:10:48.963Z,3.67
2019-03-26T12:13:19.908Z,3.43
2019-03-26T12:15:51.901Z,3.47
2019-03-26T12:18:22.251Z,3.23
2019-03-26T12:20:53.776Z,3.30
2019-03-26T12:23:25.157Z,5.00
2019-03-26T12:25:56.451Z,4.20
2019-03-26T12:28:29.075Z,3.33
2019-03-26T12:30:59.332Z,3.30
2019-03-26T12:33:29.255Z,3.13
2019-03-26T12:36:00.324Z,3.37
2019-03-26T12:38:30.618Z,3.50
2019-03-26T12:41:00.535Z,3.23
2019-03-26T12:43:30.871Z,3.17
2019-03-26T12:46:02.105Z,3.27
2019-03-26T12:48:33.347Z,2.80
2019-03-26T12:51:03.514Z,2.80
2019-03-26T12:53:34.509Z,2.90
2019-03-26T12:56:05.519Z,3.30
2019-03-26T12:58:36.668Z,3.30
2019-03-26T13:01:07.906Z,3.27
2019-03-26T13:03:37.956Z,3.00
2019-03-26T13:06:08.801Z,3.07
2019-03-26T13:08:39.937Z,3.10
2019-03-26T13:11:09.859Z,2.97
2019-03-26T13:13:40.145Z,2.67
2019-03-26T13:16:10.051Z,3.13
2019-03-26T13:18:40.897Z,2.70
2019-03-26T13:21:11.775Z,2.80
2019-03-26T13:23:42.033Z,2.83
2019-03-26T13:26:12.964Z,2.87
2019-03-26T13:28:44.165Z,2.40
2019-03-26T13:31:14.394Z,2.47
2019-03-26T13:33:44.292Z,3.07
2019-03-26T13:36:14.514Z,2.60
2019-03-26T13:38:45.371Z,3.23
2019-03-26T13:41:15.356Z,2.47
2019-03-26T13:43:45.760Z,2.60
2019-03-26T13:46:15.999Z,2.80
2019-03-26T13:48:48.056Z,3.40
2019-03-26T13:51:18.363Z,2.80
2019-03-26T13:53:49.488Z,2.53
2019-03-26T13:56:19.375Z,2.70
2019-03-26T13:58:50.467Z,2.80
2019-03-26T14:01:21.792Z,2.63
2019-03-26T14:03:51.680Z,2.97
2019-03-26T14:06:21.891Z,2.80
2019-03-26T14:08:52.965Z,2.77
2019-03-26T14:11:22.852Z,2.90
2019-03-26T14:13:53.006Z,2.80
2019-03-26T14:16:23.206Z,2.73
2019-03-26T14:18:53.059Z,2.50
2019-03-26T14:21:24.034Z,2.97
2019-03-26T14:23:53.876Z,2.57
2019-03-26T14:26:25.323Z,2.57
2019-03-26T14:28:55.093Z,2.17
2019-03-26T14:31:25.064Z,2.37
2019-03-26T14:33:55.190Z,2.50
2019-03-26T14:36:25.135Z,2.60
2019-03-26T14:38:54.922Z,2.47
2019-03-26T14:41:29.314Z,3.10
2019-03-26T14:43:59.680Z,2.70
2019-03-26T14:46:31.015Z,2.40
2019-03-26T14:49:01.885Z,3.50
2019-03-26T14:51:32.177Z,2.60
2019-03-26T14:54:02.156Z,2.47
2019-03-26T14:56:34.429Z,2.57
2019-03-26T14:59:07.978Z,2.97
2019-03-26T15:01:38.190Z,2.50
2019-03-26T15:04:08.027Z,2.70
2019-03-26T15:06:38.837Z,2.27
2019-03-26T15:09:10.416Z,2.47
2019-03-26T15:11:40.408Z,2.80
2019-03-26T15:14:11.931Z,2.27
2019-03-26T15:16:43.190Z,2.65
2019-03-26T15:19:13.206Z,2.55
2019-03-26T15:21:45.054Z,2.30
2019-03-26T15:24:16.077Z,2.45
2019-03-26T15:26:46.208Z,2.35
2019-03-26T15:29:16.566Z,2.65
2019-03-26T15:31:46.896Z,2.17
2019-03-26T15:34:18.772Z,2.60
2019-03-26T15:36:50.165Z,2.40
2019-03-26T15:39:21.133Z,2.67
2019-03-26T15:41:50.977Z,2.30
2019-03-26T15:44:41.574Z,2.40
2019-03-26T15:47:12.183Z,2.65
2019-03-26T15:49:43.836Z,2.17
2019-03-26T15:52:15.409Z,3.27
2019-03-26T15:54:46.130Z,2.40
2019-03-26T15:57:16.312Z,2.95
2019-03-26T15:59:46.457Z,3.08
2019-03-26T16:02:17.813Z,2.47
2019-03-26T16:04:49.260Z,2.20
2019-03-26T16:07:19.806Z,2.30
2019-03-26T16:09:52.640Z,2.30
2019-03-26T16:12:23.872Z,2.45
2019-03-26T16:14:55.362Z,2.70
2019-03-26T16:17:27.891Z,2.30
2019-03-26T16:19:59.387Z,2.40
2019-03-26T16:22:29.608Z,2.30
2019-03-26T16:25:00.411Z,3.10
2019-03-26T16:27:32.028Z,2.47
2019-03-26T16:30:02.064Z,2.20
2019-03-26T16:32:32.251Z,2.60
2019-03-26T16:35:02.503Z,2.20
2019-03-26T16:37:32.458Z,2.73
2019-03-26T16:40:05.588Z,2.50
2019-03-26T16:42:35.478Z,2.50
2019-03-26T16:45:05.565Z,2.23
2019-03-26T16:47:37.381Z,2.07
2019-03-26T16:50:08.734Z,2.10
2019-03-26T16:52:38.726Z,2.17
2019-03-26T16:55:10.085Z,2.03
2019-03-26T16:57:42.468Z,2.13
2019-03-26T17:00:12.543Z,2.33
2019-03-26T17:02:57.927Z,2.13
2019-03-26T17:05:29.487Z,2.67
2019-03-26T17:07:59.386Z,2.40
2019-03-26T17:10:31.266Z,2.10
2019-03-26T17:13:01.435Z,2.30
2019-03-26T17:15:31.774Z,2.50
2019-03-26T17:18:01.620Z,2.00
2019-03-26T17:20:31.330Z,2.73
2019-03-26T17:23:02.329Z,2.20
2019-03-26T17:25:34.102Z,1.97
2019-03-26T17:28:03.995Z,2.00
2019-03-26T17:30:34.654Z,2.97
2019-03-26T17:33:07.529Z,1.97
2019-03-26T17:35:37.448Z,1.90
2019-03-26T17:38:08.219Z,2.80
2019-03-26T17:40:37.995Z,1.90
2019-03-26T17:43:08.263Z,2.30
2019-03-26T17:45:38.199Z,2.20
2019-03-26T17:48:08.576Z,2.30
2019-03-26T17:50:39.011Z,2.50
2019-03-26T17:53:08.984Z,2.70
2019-03-26T17:55:38.805Z,2.83
2019-03-26T17:58:14.247Z,2.33
2019-03-26T18:00:49.543Z,2.43
2019-03-26T18:03:26.786Z,2.33
2019-03-26T18:05:52.768Z,2.20
2019-03-26T18:08:22.707Z,2.20
2019-03-26T18:10:52.688Z,2.20
2019-03-26T18:13:22.695Z,2.43
2019-03-26T18:15:52.600Z,2.40
2019-03-26T18:18:22.509Z,2.40
2019-03-26T18:21:00.321Z,2.60
2019-03-26T18:23:30.176Z,2.30
2019-03-26T18:26:00.558Z,2.53
2019-03-26T18:28:30.670Z,4.87
2019-03-26T18:31:03.659Z,6.10
2019-03-26T18:33:34.319Z,4.27
2019-03-26T18:36:05.003Z,4.23
2019-03-26T18:38:34.991Z,4.60
2019-03-26T18:41:05.571Z,4.70
2019-03-26T18:43:36.456Z,4.77
2019-03-26T18:46:06.437Z,4.83
2019-03-26T18:48:36.237Z,3.60
2019-03-26T18:51:06.323Z,3.30
2019-03-26T18:53:36.547Z,3.20
2019-03-26T18:56:06.518Z,4.20
2019-03-26T18:58:37.276Z,3.07
2019-03-26T19:01:07.157Z,3.30
2019-03-26T19:03:37.216Z,3.07
2019-03-26T19:06:07.424Z,2.77
2019-03-26T19:08:39.934Z,2.67
2019-03-26T19:11:09.891Z,2.70
2019-03-26T19:13:40.198Z,2.57
2019-03-26T19:16:10.179Z,3.60
2019-03-26T19:18:40.106Z,2.70
2019-03-26T19:21:10.151Z,2.93
2019-03-26T19:23:40.597Z,2.40
2019-03-26T19:26:11.924Z,2.60
2019-03-26T19:28:41.855Z,2.30
2019-03-26T19:31:12.312Z,2.50
2019-03-26T19:33:43.640Z,2.70
2019-03-26T19:36:14.542Z,2.50
2019-03-26T19:38:46.151Z,2.40
2019-03-26T19:41:18.063Z,2.50
2019-03-26T19:43:50.841Z,2.33
2019-03-26T19:46:23.841Z,2.50
2019-03-26T19:48:56.644Z,2.47
2019-03-26T19:51:27.391Z,2.50
2019-03-26T19:53:57.284Z,5.20
2019-03-26T19:56:28.086Z,3.13
2019-03-26T19:58:58.375Z,3.03
2019-03-26T20:01:28.543Z,2.70
2019-03-26T20:03:59.356Z,3.53
2019-03-26T20:06:29.823Z,2.93
2019-03-26T20:08:59.754Z,4.40
2019-03-26T20:11:29.969Z,2.67
2019-03-26T20:14:00.252Z,6.07
2019-03-26T20:16:41.585Z,5.93
2019-03-26T20:19:03.709Z,7.13
2019-03-26T20:21:33.758Z,3.70
2019-03-26T20:24:22.846Z,2.93
2019-03-26T20:26:52.972Z,2.70
2019-03-26T20:29:22.773Z,2.20
2019-03-26T20:31:55.873Z,2.60
2019-03-26T20:34:26.303Z,2.60
2019-03-26T20:36:56.220Z,2.40
2019-03-26T20:39:26.555Z,3.30
2019-03-26T20:41:56.534Z,2.80
2019-03-26T20:44:27.201Z,2.50
2019-03-26T20:46:57.932Z,2.80
2019-03-26T20:49:28.385Z,2.90
2019-03-26T20:51:58.449Z,2.43
2019-03-26T20:54:29.366Z,2.77
2019-03-26T20:57:01.733Z,2.33
2019-03-26T20:59:32.161Z,2.77
2019-03-26T21:02:03.159Z,2.80
2019-03-26T21:04:35.003Z,2.27
2019-03-26T21:07:05.116Z,2.87
2019-03-26T21:09:35.604Z,2.67
2019-03-26T21:12:08.511Z,2.80
2019-03-26T21:14:38.833Z,3.03
2019-03-26T21:17:09.308Z,2.90
2019-03-26T21:19:39.488Z,2.77
2019-03-26T21:22:11.321Z,3.10
2019-03-26T21:24:42.201Z,2.97
2019-03-26T21:27:12.085Z,3.07
2019-03-26T21:29:42.867Z,2.90
2019-03-26T21:32:14.180Z,2.93
2019-03-26T21:34:44.405Z,3.70
2019-03-26T21:37:14.597Z,3.13
2019-03-26T21:39:49.017Z,2.43
2019-03-26T21:42:18.993Z,2.73
2019-03-26T21:44:49.415Z,3.83
2019-03-26T21:47:20.174Z,4.37
2019-03-26T21:49:50.375Z,3.13
2019-03-26T21:52:20.154Z,3.10
2019-03-26T21:54:50.423Z,3.20
2019-03-26T21:57:20.487Z,3.10
2019-03-26T21:59:50.302Z,2.97
2019-03-26T22:02:21.176Z,3.20
2019-03-26T22:04:51.158Z,2.87
2019-03-26T22:07:21.773Z,3.23
2019-03-26T22:09:54.910Z,3.00
2019-03-26T22:12:25.103Z,3.07
2019-03-26T22:14:54.977Z,3.30
2019-03-26T22:17:25.118Z,3.33
2019-03-26T22:19:55.028Z,2.90
2019-03-26T22:22:24.917Z,3.10
2019-03-26T22:24:54.975Z,2.73
2019-03-26T22:27:24.974Z,3.07
2019-03-26T22:29:54.893Z,3.13
2019-03-26T22:32:24.745Z,3.50
2019-03-26T22:34:54.773Z,13.50
2019-03-26T22:37:24.661Z,6.10
2019-03-26T22:39:54.577Z,2.70
2019-03-26T22:42:24.689Z,3.33
2019-03-26T22:44:55.855Z,3.10
2019-03-26T22:47:25.594Z,4.10
2019-03-26T22:49:57.394Z,3.67
2019-03-26T22:52:27.415Z,3.03
2019-03-26T22:54:57.482Z,2.53
2019-03-26T22:57:27.730Z,2.63
2019-03-26T22:59:57.583Z,4.57
2019-03-26T23:02:29.223Z,7.10
2019-03-26T23:04:59.231Z,3.23
2019-03-26T23:07:29.053Z,2.77
2019-03-26T23:09:59.471Z,3.43
2019-03-26T23:12:29.407Z,3.10
2019-03-26T23:14:59.259Z,2.90
2019-03-26T23:17:29.398Z,3.07
2019-03-26T23:19:59.454Z,3.10
2019-03-26T23:22:29.237Z,2.73
2019-03-26T23:24:59.312Z,3.50
2019-03-26T23:27:29.475Z,3.40
2019-03-26T23:29:59.343Z,3.33
2019-03-26T23:32:29.075Z,2.80
2019-03-26T23:34:59.215Z,3.40
2019-03-26T23:37:29.128Z,3.27
2019-03-26T23:39:59.404Z,3.47
2019-03-26T23:42:29.795Z,2.87
2019-03-26T23:44:59.663Z,3.00
2019-03-26T23:47:29.548Z,2.60
2019-03-26T23:49:59.385Z,2.77
2019-03-26T23:52:29.240Z,3.40
2019-03-26T23:54:59.358Z,4.07
2019-03-26T23:57:29.245Z,4.77
2019-03-26T23:59:59.015Z,3.77
